CA-0478 weather

Williams Lake / Highland Helicopters
British Columbia, Canada

Public forecast

Using degrees Celsius for public forecast. Weather courtesy of forecast.io.

METAR (pilot weather report)

Closest report is Williams Lake Airport, 4.6 nm (8.6 km) ENE. Retrieved 2019/08/24 03:00 UTC (29 minutes ago):

CYWL 240300Z 10007KT 15SM SCT040 BKN100 BKN220 14/10 A2980 RMK SC3AC3CI1 SLP100 DENSITY ALT 3900FT

TAF (pilot weather forecast)

Closest forecast is Williams Lake Airport, 4.6 nm (8.6 km) ENE. Retrieved 2019/08/24 01:39 UTC (2 hours ago):

TAF CYWL 240038Z 2401/2413 14006KT P6SM SCT040 TEMPO 2401/2403 VRB15G25KT 5SM TSRA BKN040CB FM240300 VRB03KT P6SM SCT080 FM241000 VRB03KT P6SM BKN060 RMK NXT FCST BY 240700Z